This is the latest recevied weather packets stored in our database for station/object KF0PEC-15. If no packets are shown the sender has not sent any weather packets the latest 10 day(s).
| Time | Temp. | Humidity | Pressure | Rain* | Wind** | Luminosity | Snow |
|---|---|---|---|---|---|---|---|
| 1777663275 | 10.56° C | 44% | 1020.9 hPa | 0 mm | - | 257 W/m² | - |
| 1777662707 | 10.56° C | 44% | 1021.1 hPa | 0 mm | - | 237 W/m² | - |
| 1777662185 | 11.11° C | 43% | 1020.9 hPa | 0 mm | - | 261 W/m² | - |
| 1777661605 | 11.67° C | 44% | 1020.6 hPa | 0 mm | - | 317 W/m² | - |
| 1777661110 | 11.11° C | 45% | 1021.3 hPa | 0 mm | - | 542 W/m² | - |
| 1777660600 | 11.11° C | 45% | 1021.2 hPa | 0 mm | - | 676 W/m² | - |
| 1777660085 | 11.11° C | 45% | 1021 hPa | 0 mm | - | 655 W/m² | - |
| 1777659585 | 10.56° C | 44% | 1021.3 hPa | 0 mm | - | 979 W/m² | - |
| 1777659037 | 10.56° C | 45% | 1021.6 hPa | 0 mm | - | 102 W/m² | - |
| 1777658515 | 10° C | 47% | 1022.3 hPa | 0 mm | - | 776 W/m² | - |
| 1777657940 | 10° C | 50% | 1022.6 hPa | 0 mm | - | 435 W/m² | - |
| 1777657375 | 8.89° C | 48% | 1023.3 hPa | 0 mm | - | 360 W/m² | - |
| 1777656785 | 8.89° C | 50% | 1023.5 hPa | 0 mm | - | 296 W/m² | - |
| 1777656265 | 8.33° C | 51% | 1023.6 hPa | 0 mm | - | 205 W/m² | - |
| 1777655750 | 8.33° C | 53% | 1023.5 hPa | 0 mm | - | 180 W/m² | - |
| 1777655246 | 8.33° C | 51% | 1023.4 hPa | 0 mm | - | 162 W/m² | - |
| 1777654655 | 8.89° C | 50% | 1023 hPa | 0 mm | - | 149 W/m² | - |
| 1777654150 | 8.89° C | 48% | 1023 hPa | 0 mm | - | 180 W/m² | - |
| 1777653585 | 10° C | 49% | 1022.4 hPa | 0 mm | - | 322 W/m² | - |
| 1777653075 | 10° C | 50% | 1022.3 hPa | 0 mm | - | 522 W/m² | - |
| 1777652565 | 10.56° C | 48% | 1021.7 hPa | 0 mm | - | 510 W/m² | - |
| 1777652025 | 10° C | 48% | 1022.3 hPa | 0 mm | - | 724 W/m² | - |
| 1777651450 | 10.56° C | 50% | 1021.9 hPa | 0 mm | - | 859 W/m² | - |
| 1777650910 | 9.44° C | 52% | 1022.4 hPa | 0 mm | - | 753 W/m² | - |
| 1777650397 | 10° C | 55% | 1022 hPa | 0 mm | - | 419 W/m² | - |
* Rain latest hour (hover to see other rain measurements)
** Current wind speed in m/s (hover to see current wind gust speed)